Time;durP1;ratioP1;P1;durP2;ratioP2;P2;SDS_P1;SDS_P2;PMS_P1;PMS_P2;Temp;Humidity;BMP_temperature;BMP_pressure;BME280_temperature;BME280_humidity;BME280_pressure;Samples;Min_cycle;Max_cycle;Signal;HPM_P1;HPM_P2
2022/06/13 00:01:24;;;;;;;12.00;10.08;;;;;;;26.70;53.21;99503.01;1685517;84;21631;-60
2022/06/13 00:03:51;;;;;;;9.93;8.65;;;;;;;26.66;53.26;99493.22;1704807;81;21068;-62
2022/06/13 00:06:18;;;;;;;11.83;9.85;;;;;;;26.64;53.31;99496.22;1715442;81;21085;-60
2022/06/13 00:08:46;;;;;;;10.95;9.55;;;;;;;26.64;53.39;99491.32;1707954;81;21105;-61
2022/06/13 00:11:16;;;;;;;10.70;8.70;;;;;;;26.61;53.45;99488.59;1721921;81;21137;-59
2022/06/13 00:13:44;;;;;;;11.22;8.55;;;;;;;26.59;53.52;99487.25;1719314;81;21054;-60
2022/06/13 00:16:12;;;;;;;11.85;8.30;;;;;;;26.58;53.55;99488.30;1709152;81;21581;-60
2022/06/13 00:18:42;;;;;;;12.13;9.15;;;;;;;26.56;53.55;99489.13;1701607;81;21532;-60
2022/06/13 00:21:08;;;;;;;12.95;9.70;;;;;;;26.55;53.56;99491.60;1715820;81;21014;-60
2022/06/13 00:23:37;;;;;;;14.00;9.28;;;;;;;26.53;53.55;99492.43;1711435;81;21018;-60
2022/06/13 00:26:04;;;;;;;15.28;9.05;;;;;;;26.51;53.57;99487.26;1707038;81;21019;-60
2022/06/13 00:28:31;;;;;;;12.50;8.75;;;;;;;26.48;53.57;99483.19;1712926;81;21518;-60
2022/06/13 00:30:58;;;;;;;10.68;8.85;;;;;;;26.47;53.59;99488.91;1700302;83;21544;-61
2022/06/13 00:33:25;;;;;;;11.03;9.13;;;;;;;26.46;53.61;99487.27;1710620;81;21015;-60
2022/06/13 00:35:52;;;;;;;10.15;9.10;;;;;;;26.45;53.66;99478.84;1722002;81;21133;-60
2022/06/13 00:38:20;;;;;;;10.80;8.85;;;;;;;26.44;53.68;99473.95;1717653;81;21029;-60
2022/06/13 00:40:48;;;;;;;11.12;8.75;;;;;;;26.43;53.67;99477.77;1715222;81;21545;-60
2022/06/13 00:43:15;;;;;;;11.43;7.95;;;;;;;26.43;53.73;99481.04;1703231;81;21561;-60
2022/06/13 00:45:42;;;;;;;12.10;8.68;;;;;;;26.42;53.74;99477.48;1720859;81;21592;-60
2022/06/13 00:48:12;;;;;;;9.63;8.45;;;;;;;26.41;53.75;99479.95;1727951;81;21033;-61
2022/06/13 00:50:49;;;;;;;11.12;9.15;;;;;;;26.41;53.77;99483.23;1716391;81;21030;-60
2022/06/13 00:53:20;;;;;;;14.03;9.03;;;;;;;26.39;53.80;99483.50;1668550;83;21060;-60
2022/06/13 00:55:53;;;;;;;10.50;8.73;;;;;;;26.37;53.86;99480.25;1710642;82;21015;-60
2022/06/13 00:58:19;;;;;;;;;;;;;;;26.36;53.92;99475.07;1717389;83;21048;-60
2022/06/13 01:00:48;;;;;;;10.70;8.68;;;;;;;26.33;53.98;99473.73;1695970;83;21231;-60
2022/06/13 01:03:15;;;;;;;8.98;8.10;;;;;;;26.30;54.03;99471.55;1704230;82;21045;-60
2022/06/13 01:05:44;;;;;;;10.72;8.15;;;;;;;26.29;54.11;99474.03;1671281;85;21064;-60
2022/06/13 01:08:13;;;;;;;11.63;8.75;;;;;;;26.28;54.14;99473.19;1670402;85;21628;-61
2022/06/13 01:13:41;;;;;;;9.60;7.62;;;;;;;26.26;54.22;99471.30;1709679;82;21218;-60
2022/06/13 01:16:39;;;;;;;9.53;8.53;;;;;;;26.25;54.27;99477.01;1662327;85;21052;-60
2022/06/13 01:19:51;;;;;;;10.25;8.05;;;;;;;26.24;54.34;99469.95;1671393;84;21580;-60
2022/06/13 01:22:29;;;;;;;11.33;8.55;;;;;;;26.21;54.41;99472.69;1660950;84;21055;-60
2022/06/13 01:25:27;;;;;;;9.08;7.80;;;;;;;26.19;54.43;99474.87;1670052;85;21070;-60
2022/06/13 01:28:21;;;;;;;10.75;7.65;;;;;;;26.18;54.51;99473.80;1680106;83;21928;-61
2022/06/13 01:31:10;;;;;;;8.95;7.78;;;;;;;26.15;54.57;99471.61;1651036;85;21098;-61
2022/06/13 01:33:51;;;;;;;8.88;7.75;;;;;;;26.14;54.62;99471.36;1672052;85;21013;-60
2022/06/13 01:36:51;;;;;;;11.38;8.03;;;;;;;26.12;54.67;99474.91;1710565;82;21038;-60
2022/06/13 01:39:38;;;;;;;9.00;7.45;;;;;;;26.11;54.71;99481.42;1712367;82;21049;-61
2022/06/13 01:42:37;;;;;;;8.60;6.72;;;;;;;26.09;54.79;99483.06;1714848;82;21147;-61
2022/06/13 01:45:21;;;;;;;9.23;7.75;;;;;;;26.07;54.82;99486.61;1662732;85;21627;-60
2022/06/13 01:48:14;;;;;;;8.30;7.20;;;;;;;26.05;54.91;99485.52;1707363;82;21117;-61
2022/06/13 01:50:46;;;;;;;8.33;7.53;;;;;;;26.03;54.94;99482.26;1715703;82;21015;-61
2022/06/13 01:53:33;;;;;;;8.10;7.12;;;;;;;26.01;54.98;99481.72;1723111;80;21108;-61
2022/06/13 01:56:12;;;;;;;11.83;7.37;;;;;;;26.00;55.03;99486.91;1719327;80;21147;-60
2022/06/13 01:59:00;;;;;;;8.45;7.22;;;;;;;26.00;55.06;99485.55;1718760;80;21104;-60
2022/06/13 02:01:35;;;;;;;10.43;7.87;;;;;;;25.99;55.14;99486.62;1733577;80;21066;-60
2022/06/13 02:04:07;;;;;;;7.55;6.85;;;;;;;25.99;55.17;99489.91;1722988;80;21101;-60
2022/06/13 02:06:38;;;;;;;7.72;6.83;;;;;;;25.97;55.22;99483.92;1695852;83;21047;-60
2022/06/13 02:09:17;;;;;;;7.83;7.00;;;;;;;25.96;55.25;99482.28;1732387;80;21146;-62
2022/06/13 02:11:48;;;;;;;7.90;7.05;;;;;;;25.95;55.31;99476.59;1732923;80;21023;-61
2022/06/13 02:14:43;;;;;;;7.60;6.77;;;;;;;25.94;55.41;99480.38;1734384;80;21034;-60
2022/06/13 02:17:20;;;;;;;7.67;6.87;;;;;;;25.94;55.45;99481.74;1679795;84;21084;-60
2022/06/13 02:19:55;;;;;;;8.65;7.58;;;;;;;25.92;55.46;99482.02;1679704;84;21553;-61
2022/06/13 02:22:33;;;;;;;8.40;7.40;;;;;;;25.91;55.54;99476.31;1691719;80;21163;-60
2022/06/13 02:25:28;;;;;;;8.33;6.90;;;;;;;25.90;55.58;99476.00;1719462;80;21577;-61
2022/06/13 02:28:12;;;;;;;7.83;7.12;;;;;;;25.89;55.60;99481.19;1723640;80;21038;-60
2022/06/13 02:30:45;;;;;;;7.78;7.12;;;;;;;25.88;55.66;99479.55;1737023;80;21094;-60
2022/06/13 02:33:18;;;;;;;7.70;6.87;;;;;;;25.87;55.72;99485.54;1731588;80;21062;-61
2022/06/13 02:35:52;;;;;;;;;;;;;;;25.86;55.76;99484.45;1733749;80;22035;-61
2022/06/13 02:38:32;;;;;;;9.00;7.67;;;;;;;25.85;55.84;99480.92;1734242;80;20167;-61
2022/06/13 02:41:08;;;;;;;11.63;7.05;;;;;;;25.83;55.87;99484.47;1728341;80;21014;-60
2022/06/13 02:43:58;;;;;;;7.25;6.55;;;;;;;25.82;55.96;99489.63;1720439;80;20990;-61
2022/06/13 02:46:35;;;;;;;8.48;6.85;;;;;;;25.83;56.03;99489.09;1702731;84;21012;-61
2022/06/13 02:49:12;;;;;;;7.37;6.67;;;;;;;25.83;56.08;99490.46;1700596;82;21531;-60
2022/06/13 02:52:15;;;;;;;9.65;7.25;;;;;;;25.81;56.12;99483.92;1729176;80;20989;-60
2022/06/13 02:54:58;;;;;;;8.05;7.15;;;;;;;25.82;56.15;99486.09;1687001;83;21058;-61
2022/06/13 02:57:40;;;;;;;;;;;;;;;25.82;56.15;99486.09;1710023;83;21018;-60
2022/06/13 03:00:21;;;;;;;6.95;6.35;;;;;;;25.82;56.25;99487.45;1698800;83;20233;-60
2022/06/13 03:03:20;;;;;;;8.18;6.92;;;;;;;25.80;56.30;99489.64;1709580;83;22217;-61
2022/06/13 03:08:48;;;;;;;7.83;7.12;;;;;;;25.85;56.38;99489.64;1793784;79;22600;-61
2022/06/13 03:11:32;;;;;;;8.58;6.97;;;;;;;25.81;56.41;99488.01;1742321;80;21061;-61
2022/06/13 03:14:20;;;;;;;8.15;6.62;;;;;;;25.82;56.44;99494.26;1740964;81;21145;-61
2022/06/13 03:16:55;;;;;;;7.33;6.67;;;;;;;25.81;56.48;99497.53;1736378;80;21636;-60
2022/06/13 03:19:27;;;;;;;8.13;7.33;;;;;;;25.81;56.52;99495.36;1752815;80;21061;-61
2022/06/13 03:22:11;;;;;;;7.37;6.67;;;;;;;25.83;56.54;99497.27;1743933;80;21581;-60
2022/06/13 03:25:03;;;;;;;8.43;7.08;;;;;;;25.82;56.47;99502.42;1693282;81;21077;-61
2022/06/13 03:27:36;;;;;;;8.60;7.70;;;;;;;25.84;56.40;99501.59;1710803;80;21757;-61
2022/06/13 03:30:09;;;;;;;;;;;;;;;25.84;56.34;99504.32;1744966;81;21025;-60
2022/06/13 03:32:41;;;;;;;9.13;6.75;;;;;;;25.84;56.32;99504.32;1755661;81;20171;-61
2022/06/13 03:35:12;;;;;;;8.68;7.83;;;;;;;25.82;56.30;99497.78;1733719;80;21050;-61
2022/06/13 03:37:45;;;;;;;8.20;7.40;;;;;;;25.83;56.27;99502.15;1749548;81;21126;-61
2022/06/13 03:40:19;;;;;;;8.73;7.47;;;;;;;25.84;56.26;99504.32;1741989;81;21084;-61
2022/06/13 03:43:00;;;;;;;7.90;7.10;;;;;;;25.85;56.26;99499.16;1742428;80;21569;-60
2022/06/13 03:45:32;;;;;;;9.00;7.47;;;;;;;25.86;56.27;99505.70;1737896;80;21011;-61
2022/06/13 03:48:10;;;;;;;8.00;6.67;;;;;;;25.86;56.27;99507.58;1734790;80;21097;-60
2022/06/13 03:50:44;;;;;;;8.35;7.10;;;;;;;25.88;56.31;99510.31;1738025;80;20999;-60
2022/06/13 03:53:32;;;;;;;6.75;6.03;;;;;;;25.89;56.31;99513.84;1747588;80;21128;-61
2022/06/13 03:56:21;;;;;;;7.05;6.35;;;;;;;25.89;56.30;99513.29;1750978;80;21010;-60
2022/06/13 03:58:55;;;;;;;7.05;6.33;;;;;;;25.90;56.31;99515.45;1739803;81;21081;-60
2022/06/13 04:01:32;;;;;;;7.45;6.75;;;;;;;25.91;56.35;99511.69;1750816;80;21057;-61
2022/06/13 04:04:00;;;;;;;6.47;5.87;;;;;;;25.92;56.37;99513.30;1729848;80;21089;-61
2022/06/13 04:06:38;;;;;;;7.28;6.53;;;;;;;25.93;56.40;99513.59;1751873;80;22359;-62
2022/06/13 04:09:16;;;;;;;11.25;6.92;;;;;;;25.94;56.46;99516.59;1735146;80;20983;-61
2022/06/13 04:12:05;;;;;;;8.13;6.78;;;;;;;25.96;56.44;99516.30;1721609;80;21044;-61
2022/06/13 04:15:22;;;;;;;6.75;6.15;;;;;;;25.97;56.49;99522.83;1739958;80;21034;-61
2022/06/13 04:18:35;;;;;;;8.20;6.65;;;;;;;25.99;56.55;99518.48;1731504;80;21065;-61
2022/06/13 04:21:32;;;;;;;7.30;6.42;;;;;;;25.99;56.57;99523.37;1731261;80;21224;-61
2022/06/13 04:24:16;;;;;;;7.78;6.37;;;;;;;26.00;56.58;99526.38;1724881;80;21003;-62
2022/06/13 04:27:17;;;;;;;7.33;6.62;;;;;;;26.01;56.61;99525.27;1734827;80;21617;-61
2022/06/13 04:29:51;;;;;;;9.45;7.05;;;;;;;26.03;56.63;99529.89;1717027;80;21090;-62
2022/06/13 04:32:22;;;;;;;6.87;6.17;;;;;;;26.04;56.71;99531.53;1729980;82;21034;-61
2022/06/13 04:34:50;;;;;;;7.80;7.00;;;;;;;26.06;56.98;99530.71;1742286;82;21088;-61
2022/06/13 04:37:20;;;;;;;7.33;6.62;;;;;;;26.08;57.10;99527.72;1719891;82;21053;-61
2022/06/13 04:39:49;;;;;;;7.42;6.60;;;;;;;26.11;57.25;99531.23;1737659;82;21019;-60
2022/06/13 04:42:15;;;;;;;9.20;7.12;;;;;;;26.14;57.36;99524.44;1734760;81;22070;-62
2022/06/13 04:44:42;;;;;;;9.53;7.05;;;;;;;26.16;57.41;99531.23;1727169;82;21059;-61
2022/06/13 04:47:08;;;;;;;7.70;6.90;;;;;;;26.18;57.36;99526.33;1740838;82;21239;-61
2022/06/13 04:49:50;;;;;;;13.90;7.25;;;;;;;26.21;57.40;99528.50;1730914;82;21007;-62
2022/06/13 04:52:27;;;;;;;7.65;6.85;;;;;;;26.26;57.62;99526.30;1730812;82;21015;-64
2022/06/13 04:55:11;;;;;;;9.10;6.80;;;;;;;26.34;57.66;99524.36;1737778;82;21073;-64
2022/06/13 04:57:37;;;;;;;9.85;6.60;;;;;;;26.41;57.76;99513.19;1727052;82;21040;-58
2022/06/13 05:00:09;;;;;;;8.58;7.03;;;;;;;26.46;57.57;99519.43;1724692;82;21779;-68
2022/06/13 05:02:43;;;;;;;8.60;6.87;;;;;;;26.51;57.29;99517.77;1734682;82;21070;-65
2022/06/13 05:05:34;;;;;;;8.88;7.17;;;;;;;26.54;56.73;99519.40;1742373;82;21331;-63
2022/06/13 05:08:29;;;;;;;7.65;6.95;;;;;;;26.56;56.45;99512.28;1723513;82;21598;-66
2022/06/13 05:11:16;;;;;;;7.45;6.53;;;;;;;26.58;56.29;99522.35;1735774;81;21542;-65
2022/06/13 05:13:45;;;;;;;7.87;7.08;;;;;;;26.60;56.20;99514.22;1738048;81;21140;-64
2022/06/13 05:16:48;;;;;;;7.12;6.42;;;;;;;26.61;56.10;99519.92;1739966;82;21113;-66
2022/06/13 05:19:28;;;;;;;7.97;7.20;;;;;;;26.62;56.11;99525.65;1726466;82;21088;-65
2022/06/13 05:22:22;;;;;;;7.40;6.70;;;;;;;26.64;56.01;99526.73;1734599;82;21106;-64
2022/06/13 05:25:24;;;;;;;7.92;6.50;;;;;;;26.64;56.06;99528.09;1718728;82;21066;-65
2022/06/13 05:27:53;;;;;;;7.53;6.85;;;;;;;26.65;55.99;99525.62;1734324;81;21155;-64
2022/06/13 05:30:21;;;;;;;8.43;7.17;;;;;;;26.66;55.88;99529.44;1726755;82;21043;-65
2022/06/13 05:32:47;;;;;;;7.58;6.53;;;;;;;26.66;55.81;99526.72;1741373;82;21017;-66
2022/06/13 05:35:18;;;;;;;7.50;6.83;;;;;;;26.68;55.74;99525.08;1734980;80;21035;-66
2022/06/13 05:37:44;;;;;;;8.05;6.90;;;;;;;26.68;55.70;99528.61;1732246;80;21047;-65
2022/06/13 05:40:15;;;;;;;7.20;6.58;;;;;;;26.71;55.61;99527.23;1741207;80;22613;-64
2022/06/13 05:42:42;;;;;;;7.08;6.47;;;;;;;26.75;55.60;99534.30;1740480;82;21034;-65
2022/06/13 05:45:12;;;;;;;6.55;5.85;;;;;;;26.78;55.53;99526.94;1727000;80;21466;-64
2022/06/13 05:47:40;;;;;;;10.82;5.70;;;;;;;26.79;55.61;99537.56;1732117;80;21100;-62
2022/06/13 05:50:15;;;;;;;7.05;5.67;;;;;;;26.82;55.50;99534.25;1732660;80;21070;-61
2022/06/13 05:52:42;;;;;;;7.37;6.25;;;;;;;26.87;55.33;99534.80;1736536;80;21248;-66
2022/06/13 05:55:09;;;;;;;7.95;5.97;;;;;;;26.87;55.26;99528.78;1741352;80;21030;-60
2022/06/13 05:57:38;;;;;;;7.30;5.47;;;;;;;26.93;55.48;99535.58;1734334;80;21094;-63
2022/06/13 06:00:10;;;;;;;5.97;5.37;;;;;;;26.96;55.35;99535.00;1732176;80;21019;-61
2022/06/13 06:02:38;;;;;;;6.00;5.40;;;;;;;27.02;55.15;99536.59;1731844;80;21054;-62
2022/06/13 06:05:07;;;;;;;5.00;4.50;;;;;;;27.06;54.76;99536.30;1729338;80;22128;-62
2022/06/13 06:07:34;;;;;;;4.95;4.55;;;;;;;27.09;54.30;99528.92;1743927;80;21058;-62
2022/06/13 06:10:02;;;;;;;5.70;5.20;;;;;;;27.12;53.98;99534.35;1732565;81;21137;-61
2022/06/13 06:12:30;;;;;;;6.20;5.17;;;;;;;27.14;53.84;99536.24;1751441;80;21030;-62
2022/06/13 06:14:56;;;;;;;6.25;5.03;;;;;;;27.16;53.73;99531.31;1750754;80;21497;-61
2022/06/13 06:17:23;;;;;;;8.73;5.15;;;;;;;27.17;53.52;99531.05;1734807;80;21140;-63
2022/06/13 06:19:49;;;;;;;5.37;4.87;;;;;;;27.18;53.57;99534.05;1741008;81;21080;-65
2022/06/13 06:22:16;;;;;;;5.33;4.80;;;;;;;27.21;53.48;99533.47;1748396;81;21573;-66
2022/06/13 06:24:44;;;;;;;8.30;5.03;;;;;;;27.22;53.47;99535.11;1744549;81;21033;-65
2022/06/13 06:27:13;;;;;;;8.58;4.70;;;;;;;27.24;53.42;99531.58;1756661;81;21025;-67
2022/06/13 06:29:40;;;;;;;5.80;5.30;;;;;;;27.26;53.39;99534.83;1750098;81;21212;-66
2022/06/13 06:32:07;;;;;;;7.30;5.10;;;;;;;27.29;53.46;99523.89;1741178;80;21049;-65
2022/06/13 06:34:34;;;;;;;4.65;4.30;;;;;;;27.32;53.34;99526.63;1735457;80;21537;-66
2022/06/13 06:37:00;;;;;;;6.92;4.95;;;;;;;27.36;53.24;99529.05;1748904;81;21010;-66
2022/06/13 06:39:27;;;;;;;8.20;5.20;;;;;;;27.38;53.17;99521.39;1750970;81;21057;-64
2022/06/13 06:41:55;;;;;;;6.22;4.58;;;;;;;27.40;53.29;99526.01;1748509;81;21125;-64
2022/06/13 06:44:22;;;;;;;5.40;4.78;;;;;;;27.42;53.11;99522.45;1749997;81;21034;-64
2022/06/13 06:46:48;;;;;;;4.97;4.58;;;;;;;27.45;53.07;99528.70;1747805;81;21564;-63
2022/06/13 06:49:15;;;;;;;7.70;4.92;;;;;;;27.46;53.04;99522.13;1756334;81;21089;-64
2022/06/13 06:51:43;;;;;;;5.50;5.00;;;;;;;27.47;52.95;99525.14;1756594;81;21081;-63
2022/06/13 06:59:54;;;;;;;6.70;5.12;;;;;;;27.52;52.90;99522.91;1749963;80;21033;-66
2022/06/13 07:02:23;;;;;;;5.20;4.70;;;;;;;27.53;52.58;99518.53;1751937;80;21101;-66
2022/06/13 07:04:54;;;;;;;5.62;4.90;;;;;;;27.53;52.44;99517.17;1754185;80;21596;-64
2022/06/13 07:07:21;;;;;;;6.60;4.60;;;;;;;27.55;52.47;99514.16;1742564;80;21574;-66
2022/06/13 07:09:48;;;;;;;5.15;4.65;;;;;;;27.55;52.50;99526.44;1733668;80;21003;-66
2022/06/13 07:12:15;;;;;;;6.62;5.10;;;;;;;27.56;52.46;99526.69;1727968;80;21079;-66
2022/06/13 07:14:42;;;;;;;5.60;5.10;;;;;;;27.56;52.37;99521.23;1729337;80;21058;-67
2022/06/13 07:17:09;;;;;;;6.20;5.50;;;;;;;27.56;52.32;99527.50;1743538;80;21454;-65
2022/06/13 07:19:37;;;;;;;5.97;5.25;;;;;;;27.57;53.05;99518.22;1740719;80;21022;-66
2022/06/13 07:22:06;;;;;;;6.35;5.75;;;;;;;27.59;53.20;99520.67;1731285;80;21516;-65
2022/06/13 07:24:33;;;;;;;5.78;5.20;;;;;;;27.58;53.02;99519.87;1734943;80;21578;-66
2022/06/13 07:27:00;;;;;;;5.62;4.72;;;;;;;27.58;52.88;99524.48;1728726;80;21172;-64
2022/06/13 07:29:27;;;;;;;7.20;5.20;;;;;;;27.58;52.83;99517.14;1725043;80;21094;-65
2022/06/13 07:32:02;;;;;;;5.20;4.70;;;;;;;27.58;52.62;99515.77;1717878;80;21144;-65
2022/06/13 07:34:29;;;;;;;6.13;4.83;;;;;;;27.60;53.12;99519.55;1726152;80;21660;-65
2022/06/13 07:36:57;;;;;;;4.70;4.30;;;;;;;27.62;53.22;99520.08;1725005;80;21098;-65
2022/06/13 07:39:24;;;;;;;6.80;4.85;;;;;;;27.62;53.03;99517.35;1732334;80;21037;-64
2022/06/13 07:41:50;;;;;;;5.35;4.80;;;;;;;27.65;52.78;99513.50;1729675;80;21055;-65
2022/06/13 07:44:21;;;;;;;6.10;5.22;;;;;;;27.67;52.49;99520.61;1724482;80;21151;-68
2022/06/13 07:46:50;;;;;;;6.85;4.67;;;;;;;27.69;52.27;99514.31;1728392;80;21517;-64
2022/06/13 07:49:18;;;;;;;6.78;4.67;;;;;;;27.71;52.24;99517.56;1728213;82;21523;-68
2022/06/13 07:51:45;;;;;;;5.00;4.53;;;;;;;27.71;52.04;99515.64;1743016;82;20991;-66
2022/06/13 07:54:12;;;;;;;8.98;4.60;;;;;;;27.75;51.97;99515.88;1740104;82;21138;-68
2022/06/13 07:56:39;;;;;;;5.72;4.50;;;;;;;27.76;52.07;99515.59;1743409;82;21150;-67
2022/06/13 07:59:07;;;;;;;6.20;5.08;;;;;;;27.79;52.39;99506.81;1732553;82;21019;-65
2022/06/13 08:01:33;;;;;;;8.73;4.67;;;;;;;27.81;52.35;99507.34;1724577;82;21022;-62
2022/06/13 08:04:01;;;;;;;5.30;4.50;;;;;;;27.83;52.40;99505.17;1676706;82;21065;-62
2022/06/13 08:06:27;;;;;;;4.62;4.33;;;;;;;27.88;52.28;99498.03;1718162;82;20997;-61
2022/06/13 08:08:54;;;;;;;5.35;4.12;;;;;;;27.90;52.38;99503.48;1716786;82;21142;-62
2022/06/13 08:11:26;;;;;;;6.95;4.47;;;;;;;27.92;51.79;99505.37;1727056;82;21798;-62
2022/06/13 08:13:53;;;;;;;6.47;4.35;;;;;;;27.95;51.51;99503.44;1719265;82;21054;-64
2022/06/13 08:16:21;;;;;;;9.25;4.47;;;;;;;27.98;51.59;99500.11;1713698;82;21049;-62
2022/06/13 08:18:49;;;;;;;6.10;4.10;;;;;;;28.01;51.60;99504.20;1740238;82;21057;-63
2022/06/13 08:21:17;;;;;;;5.80;3.77;;;;;;;28.03;51.46;99498.70;1730154;80;21150;-59
2022/06/13 08:23:44;;;;;;;6.05;3.90;;;;;;;28.06;51.01;99495.94;1737883;82;21095;-60
2022/06/13 08:26:11;;;;;;;9.70;3.83;;;;;;;28.08;50.95;99489.63;1742964;82;21518;-58
2022/06/13 08:28:38;;;;;;;8.65;3.95;;;;;;;28.11;51.06;99491.79;1725574;81;21630;-60
2022/06/13 08:31:08;;;;;;;4.45;3.45;;;;;;;28.13;51.18;99492.31;1713829;82;21010;-59
2022/06/13 08:33:35;;;;;;;5.22;4.00;;;;;;;28.15;51.20;99488.73;1740831;82;21144;-59
2022/06/13 08:36:05;;;;;;;5.55;4.37;;;;;;;28.18;51.06;99490.06;1734049;82;21019;-58
2022/06/13 08:38:31;;;;;;;4.80;3.80;;;;;;;28.19;50.99;99484.88;1734058;82;21554;-58
2022/06/13 08:41:15;;;;;;;4.70;3.95;;;;;;;28.19;50.95;99488.41;1728414;81;21042;-60
2022/06/13 08:44:26;;;;;;;4.33;3.92;;;;;;;28.21;50.90;99492.22;1720163;82;21050;-60
2022/06/13 08:47:30;;;;;;;4.40;4.00;;;;;;;28.22;50.89;99490.57;1743400;81;21145;-61
2022/06/13 08:50:37;;;;;;;4.83;4.10;;;;;;;28.22;50.88;99485.11;1743441;82;21003;-59
2022/06/13 08:53:22;;;;;;;4.53;4.12;;;;;;;28.22;50.91;99484.27;1742922;82;21035;-61
2022/06/13 08:55:56;;;;;;;4.30;4.00;;;;;;;28.23;50.93;99489.45;1733270;82;21522;-59
2022/06/13 08:58:31;;;;;;;4.42;4.03;;;;;;;28.23;50.93;99492.73;1734837;82;21018;-60
2022/06/13 09:01:29;;;;;;;4.28;3.90;;;;;;;28.24;50.91;99482.09;1732537;81;21119;-60
2022/06/13 09:04:15;;;;;;;4.15;3.85;;;;;;;28.25;50.98;99482.34;1719067;82;21019;-58
2022/06/13 09:07:04;;;;;;;4.28;3.87;;;;;;;28.26;51.09;99472.22;1739907;81;21054;-60
2022/06/13 09:10:05;;;;;;;4.47;4.08;;;;;;;28.28;51.11;99471.37;1730318;82;21092;-58
2022/06/13 09:12:39;;;;;;;4.58;3.90;;;;;;;28.29;51.20;99479.28;1745326;82;21636;-57
2022/06/13 09:15:14;;;;;;;4.75;4.37;;;;;;;28.28;51.08;99480.40;1722252;82;21136;-60
2022/06/13 09:17:55;;;;;;;4.37;4.08;;;;;;;28.29;51.00;99481.20;1750976;81;21018;-58
2022/06/13 09:20:53;;;;;;;4.37;3.62;;;;;;;28.30;50.95;99475.45;1751320;82;21093;-63
2022/06/13 09:24:12;;;;;;;4.22;3.85;;;;;;;28.32;51.16;99475.98;1696060;84;21624;-62
2022/06/13 09:26:49;;;;;;;4.40;4.00;;;;;;;28.33;51.30;99475.41;1696001;84;21097;-62
2022/06/13 09:29:30;;;;;;;4.03;3.72;;;;;;;28.32;51.28;99474.61;1740897;82;21173;-62
2022/06/13 09:32:10;;;;;;;4.25;3.95;;;;;;;28.32;51.17;99473.77;1727056;82;21081;-63
2022/06/13 09:34:46;;;;;;;4.15;3.85;;;;;;;28.33;51.17;99472.12;1725269;82;21009;-62
2022/06/13 09:37:18;;;;;;;4.90;3.70;;;;;;;28.34;51.24;99468.86;1750116;81;22006;-63
2022/06/13 09:39:46;;;;;;;4.90;4.00;;;;;;;28.35;51.33;99463.64;1746148;82;21568;-62
2022/06/13 09:42:33;;;;;;;4.53;3.98;;;;;;;28.36;51.39;99463.36;1736256;82;21789;-62
2022/06/13 09:45:41;;;;;;;4.40;3.98;;;;;;;28.37;51.45;99462.23;1749473;81;21576;-62
2022/06/13 09:48:25;;;;;;;4.10;3.75;;;;;;;28.39;51.50;99468.77;1731212;82;21128;-63
2022/06/13 09:51:09;;;;;;;4.42;4.03;;;;;;;28.41;51.53;99469.30;1751217;82;21033;-62
2022/06/13 09:53:53;;;;;;;3.90;3.60;;;;;;;28.42;51.58;99467.64;1749642;82;21093;-61
2022/06/13 09:56:32;;;;;;;3.65;3.35;;;;;;;28.43;51.59;99456.98;1750117;81;21230;-62
2022/06/13 09:59:25;;;;;;;3.92;3.62;;;;;;;28.45;51.56;99471.70;1729649;80;21066;-62
2022/06/13 10:02:06;;;;;;;4.53;3.80;;;;;;;28.45;51.14;99464.86;1739037;82;21018;-62
2022/06/13 10:05:00;;;;;;;4.50;4.10;;;;;;;28.47;50.92;99459.11;1736883;82;21018;-62
2022/06/13 10:07:37;;;;;;;4.28;3.98;;;;;;;28.49;51.06;99461.00;1729795;82;21195;-62
2022/06/13 10:10:19;;;;;;;4.10;3.80;;;;;;;28.52;51.17;99467.28;1728054;82;21090;-63
2022/06/13 10:13:00;;;;;;;3.85;3.55;;;;;;;28.53;51.23;99460.69;1743347;81;21586;-63
2022/06/13 10:16:04;;;;;;;4.22;3.90;;;;;;;28.55;51.27;99457.11;1742041;81;20995;-61
2022/06/13 10:19:00;;;;;;;5.17;4.28;;;;;;;28.56;51.26;99449.99;1727329;80;21527;-62
2022/06/13 10:21:48;;;;;;;6.65;3.90;;;;;;;28.58;51.24;99447.78;1730952;80;21035;-62
2022/06/13 10:24:47;;;;;;;8.23;5.22;;;;;;;28.59;50.61;99459.55;1723916;82;21098;-61
2022/06/13 10:27:40;;;;;;;6.22;3.62;;;;;;;28.60;50.50;99451.02;1739682;80;21058;-63
2022/06/13 10:30:11;;;;;;;;;;;;;;;28.62;50.67;99445.27;1720498;82;21003;-61
2022/06/13 10:33:12;;;;;;;3.90;3.50;;;;;;;28.66;50.59;99440.84;1721732;82;20479;-61
2022/06/13 10:36:19;;;;;;;4.45;3.75;;;;;;;28.68;50.75;99441.35;1730421;82;21038;-63
2022/06/13 10:39:03;;;;;;;3.47;3.17;;;;;;;28.74;50.61;99440.73;1741330;80;21160;-61
2022/06/13 10:41:30;;;;;;;3.98;3.65;;;;;;;28.79;50.50;99441.46;1733811;81;21542;-60
2022/06/13 10:43:57;;;;;;;4.45;3.30;;;;;;;28.85;50.52;99440.03;1740547;82;21182;-59
2022/06/13 10:46:24;;;;;;;3.62;3.33;;;;;;;28.88;50.29;99438.89;1737900;82;21128;-61
2022/06/13 10:48:56;;;;;;;4.10;3.67;;;;;;;28.92;49.75;99433.64;1732236;80;21085;-62
2022/06/13 10:51:22;;;;;;;6.83;4.15;;;;;;;28.97;49.73;99437.08;1718205;80;21787;-62
2022/06/13 10:54:12;;;;;;;4.55;4.03;;;;;;;29.01;49.75;99440.03;1719222;82;21541;-62
2022/06/13 10:56:55;;;;;;;3.83;3.45;;;;;;;29.04;49.69;99436.72;1735109;82;21569;-60
2022/06/13 10:59:29;;;;;;;5.15;3.10;;;;;;;29.06;49.29;99438.59;1736073;80;21498;-60
2022/06/13 11:02:05;;;;;;;3.50;3.30;;;;;;;29.11;49.54;99437.69;1741199;82;21479;-59
2022/06/13 11:04:34;;;;;;;7.85;4.45;;;;;;;29.14;49.70;99429.73;1721037;81;21144;-61
2022/06/13 11:07:16;;;;;;;4.95;3.47;;;;;;;29.21;49.55;99432.09;1732477;82;21003;-60
2022/06/13 11:09:50;;;;;;;6.33;3.40;;;;;;;29.27;49.28;99425.98;1742083;80;21030;-61
2022/06/13 11:12:37;;;;;;;5.90;3.65;;;;;;;29.33;49.12;99423.41;1742061;81;21578;-59
2022/06/13 11:23:56;;;;;;;5.92;4.37;;;;;;;29.53;48.66;99411.27;1729560;82;21058;-63
2022/06/13 11:29:16;;;;;;;4.75;3.75;;;;;;;29.64;48.72;99413.28;1749565;81;21023;-65
2022/06/13 11:31:53;;;;;;;4.87;4.42;;;;;;;29.66;49.42;99405.58;1743567;82;21538;-66
2022/06/13 11:34:32;;;;;;;4.53;4.08;;;;;;;29.70;49.22;99412.06;1728817;82;21022;-67
2022/06/13 11:37:21;;;;;;;7.03;4.78;;;;;;;29.71;49.49;99404.09;1729900;82;21061;-66
2022/06/13 11:39:50;;;;;;;4.30;4.00;;;;;;;29.71;49.28;99411.77;1726971;82;21523;-61
2022/06/13 11:42:23;;;;;;;5.00;4.50;;;;;;;29.71;49.62;99404.09;1735083;80;21074;-63
2022/06/13 11:44:52;;;;;;;;;;;;;;;29.70;49.58;99405.22;1735733;82;21323;-66
2022/06/13 11:47:21;;;;;;;4.60;3.77;;;;;;;29.70;48.74;99411.49;1742116;82;20225;-64
2022/06/13 11:49:55;;;;;;;6.80;3.75;;;;;;;29.68;48.49;99406.87;1738108;81;21563;-64
2022/06/13 11:55:24;;;;;;;4.20;3.40;;;;;;;29.66;47.70;99402.84;1724913;82;21043;-64
2022/06/13 11:58:00;;;;;;;4.10;3.80;;;;;;;29.65;47.45;99402.56;1721790;82;21112;-66
2022/06/13 12:00:32;;;;;;;5.83;4.20;;;;;;;29.64;47.64;99398.22;1741410;82;21058;-65
2022/06/13 12:03:21;;;;;;;3.75;3.45;;;;;;;29.64;47.13;99394.12;1731507;80;21058;-68
2022/06/13 12:05:59;;;;;;;4.55;4.25;;;;;;;29.62;47.17;99392.24;1717537;80;21078;-66
2022/06/13 12:08:28;;;;;;;4.78;4.00;;;;;;;29.60;46.81;99389.80;1729776;80;21586;-63
2022/06/13 12:11:01;;;;;;;6.25;4.30;;;;;;;29.59;47.18;99392.27;1752883;80;21136;-61
2022/06/13 12:13:34;;;;;;;4.17;3.77;;;;;;;29.60;48.23;99388.44;1744023;81;21029;-62
2022/06/13 12:16:36;;;;;;;4.03;3.72;;;;;;;29.60;48.04;99393.34;1750630;81;21059;-61
2022/06/13 12:19:17;;;;;;;4.65;4.17;;;;;;;29.63;48.57;99386.44;1720969;81;21003;-63
2022/06/13 12:22:14;;;;;;;4.40;4.00;;;;;;;29.67;49.07;99376.53;1754464;80;21089;-65
2022/06/13 12:25:05;;;;;;;4.40;4.00;;;;;;;29.74;49.15;99376.15;1747699;80;21149;-62
2022/06/13 12:28:04;;;;;;;4.00;3.70;;;;;;;29.82;48.78;99374.06;1747012;80;21062;-65
2022/06/13 12:31:09;;;;;;;4.45;4.05;;;;;;;29.88;48.35;99363.28;1725203;81;21033;-66
2022/06/13 12:33:44;;;;;;;3.72;3.42;;;;;;;29.94;48.07;99363.95;1755460;80;21502;-62
2022/06/13 12:36:31;;;;;;;4.30;3.92;;;;;;;29.99;47.92;99356.45;1743612;80;21022;-63
2022/06/13 12:39:21;;;;;;;6.12;4.37;;;;;;;30.05;47.17;99354.41;1744974;80;21109;-63
2022/06/13 12:42:17;;;;;;;25.17;19.02;;;;;;;30.11;47.23;99352.38;1754015;80;21042;-65
2022/06/13 12:45:28;;;;;;;34.33;26.70;;;;;;;30.16;47.14;99342.68;1745635;80;21055;-62
2022/06/13 12:48:16;;;;;;;34.00;27.80;;;;;;;30.22;46.98;99342.81;1735656;81;20998;-62